sensor_id;sensor_type;location;lat;lon;timestamp;P1;durP1;ratioP1;P2;durP2;ratioP2
74624;SDS011;63131;52.298;8.056;2023-03-08T00:01:36;6.97;;;2.78;;
74624;SDS011;63131;52.298;8.056;2023-03-08T00:04:02;7.55;;;2.60;;
74624;SDS011;63131;52.298;8.056;2023-03-08T00:06:27;9.32;;;3.58;;
74624;SDS011;63131;52.298;8.056;2023-03-08T00:08:53;7.35;;;3.22;;
74624;SDS011;63131;52.298;8.056;2023-03-08T00:11:23;8.70;;;2.90;;
74624;SDS011;63131;52.298;8.056;2023-03-08T00:13:49;7.32;;;2.35;;
74624;SDS011;63131;52.298;8.056;2023-03-08T00:16:14;6.68;;;2.40;;
74624;SDS011;63131;52.298;8.056;2023-03-08T00:18:40;6.28;;;2.58;;
74624;SDS011;63131;52.298;8.056;2023-03-08T00:21:09;6.85;;;2.35;;
74624;SDS011;63131;52.298;8.056;2023-03-08T00:23:36;8.27;;;3.15;;
74624;SDS011;63131;52.298;8.056;2023-03-08T00:26:02;8.90;;;2.92;;
74624;SDS011;63131;52.298;8.056;2023-03-08T00:28:28;7.55;;;2.60;;
74624;SDS011;63131;52.298;8.056;2023-03-08T00:30:58;7.38;;;2.90;;
74624;SDS011;63131;52.298;8.056;2023-03-08T00:33:27;6.75;;;2.58;;
74624;SDS011;63131;52.298;8.056;2023-03-08T00:35:55;8.20;;;2.70;;
74624;SDS011;63131;52.298;8.056;2023-03-08T00:38:29;6.85;;;2.30;;
74624;SDS011;63131;52.298;8.056;2023-03-08T00:40:55;7.53;;;2.38;;
74624;SDS011;63131;52.298;8.056;2023-03-08T00:43:20;8.00;;;2.75;;
74624;SDS011;63131;52.298;8.056;2023-03-08T00:45:46;8.23;;;2.80;;
74624;SDS011;63131;52.298;8.056;2023-03-08T00:48:11;6.90;;;2.63;;
74624;SDS011;63131;52.298;8.056;2023-03-08T00:50:36;7.20;;;2.63;;
74624;SDS011;63131;52.298;8.056;2023-03-08T00:53:02;7.40;;;2.30;;
74624;SDS011;63131;52.298;8.056;2023-03-08T00:55:27;6.03;;;2.15;;
74624;SDS011;63131;52.298;8.056;2023-03-08T00:57:53;7.22;;;2.72;;
74624;SDS011;63131;52.298;8.056;2023-03-08T01:00:18;8.18;;;3.03;;
74624;SDS011;63131;52.298;8.056;2023-03-08T01:02:44;5.75;;;2.00;;
74624;SDS011;63131;52.298;8.056;2023-03-08T01:05:09;6.45;;;2.45;;
74624;SDS011;63131;52.298;8.056;2023-03-08T01:07:34;9.13;;;2.47;;
74624;SDS011;63131;52.298;8.056;2023-03-08T01:10:00;7.45;;;2.22;;
74624;SDS011;63131;52.298;8.056;2023-03-08T01:12:25;7.70;;;2.47;;
74624;SDS011;63131;52.298;8.056;2023-03-08T01:14:51;7.30;;;2.45;;
74624;SDS011;63131;52.298;8.056;2023-03-08T01:17:16;7.97;;;2.30;;
74624;SDS011;63131;52.298;8.056;2023-03-08T01:19:42;7.15;;;2.33;;
74624;SDS011;63131;52.298;8.056;2023-03-08T01:22:07;7.18;;;2.40;;
74624;SDS011;63131;52.298;8.056;2023-03-08T01:24:33;7.07;;;2.70;;
74624;SDS011;63131;52.298;8.056;2023-03-08T01:26:58;6.78;;;2.70;;
74624;SDS011;63131;52.298;8.056;2023-03-08T01:29:25;7.22;;;2.25;;
74624;SDS011;63131;52.298;8.056;2023-03-08T01:31:51;7.80;;;2.53;;
74624;SDS011;63131;52.298;8.056;2023-03-08T01:34:16;6.63;;;2.47;;
74624;SDS011;63131;52.298;8.056;2023-03-08T01:36:42;8.90;;;2.55;;
74624;SDS011;63131;52.298;8.056;2023-03-08T01:39:07;7.32;;;2.78;;
74624;SDS011;63131;52.298;8.056;2023-03-08T01:41:32;7.47;;;2.58;;
74624;SDS011;63131;52.298;8.056;2023-03-08T01:43:58;9.88;;;2.78;;
74624;SDS011;63131;52.298;8.056;2023-03-08T01:46:25;8.07;;;3.05;;
74624;SDS011;63131;52.298;8.056;2023-03-08T01:51:30;10.27;;;3.10;;
74624;SDS011;63131;52.298;8.056;2023-03-08T01:54:03;9.73;;;4.13;;
74624;SDS011;63131;52.298;8.056;2023-03-08T01:56:31;10.43;;;3.85;;
74624;SDS011;63131;52.298;8.056;2023-03-08T01:58:57;9.63;;;3.95;;
74624;SDS011;63131;52.298;8.056;2023-03-08T02:01:23;9.10;;;3.55;;
74624;SDS011;63131;52.298;8.056;2023-03-08T02:03:48;11.20;;;4.22;;
74624;SDS011;63131;52.298;8.056;2023-03-08T02:06:15;9.85;;;4.05;;
74624;SDS011;63131;52.298;8.056;2023-03-08T02:11:06;11.35;;;4.43;;
74624;SDS011;63131;52.298;8.056;2023-03-08T02:13:32;9.23;;;3.90;;
74624;SDS011;63131;52.298;8.056;2023-03-08T02:15:58;11.07;;;4.90;;
74624;SDS011;63131;52.298;8.056;2023-03-08T02:18:24;10.52;;;4.07;;
74624;SDS011;63131;52.298;8.056;2023-03-08T02:20:49;9.98;;;4.78;;
74624;SDS011;63131;52.298;8.056;2023-03-08T02:23:24;11.93;;;4.90;;
74624;SDS011;63131;52.298;8.056;2023-03-08T02:28:20;12.13;;;5.18;;
74624;SDS011;63131;52.298;8.056;2023-03-08T02:30:46;14.45;;;5.60;;
74624;SDS011;63131;52.298;8.056;2023-03-08T02:33:12;14.10;;;5.70;;
74624;SDS011;63131;52.298;8.056;2023-03-08T02:35:37;11.15;;;5.78;;
74624;SDS011;63131;52.298;8.056;2023-03-08T02:38:06;15.40;;;6.05;;
74624;SDS011;63131;52.298;8.056;2023-03-08T02:40:32;10.25;;;5.10;;
74624;SDS011;63131;52.298;8.056;2023-03-08T02:42:57;14.40;;;5.85;;
74624;SDS011;63131;52.298;8.056;2023-03-08T02:45:22;14.95;;;5.40;;
74624;SDS011;63131;52.298;8.056;2023-03-08T02:47:48;13.48;;;5.75;;
74624;SDS011;63131;52.298;8.056;2023-03-08T02:50:13;12.38;;;6.20;;
74624;SDS011;63131;52.298;8.056;2023-03-08T02:52:38;13.55;;;6.25;;
74624;SDS011;63131;52.298;8.056;2023-03-08T02:55:04;11.57;;;5.35;;
74624;SDS011;63131;52.298;8.056;2023-03-08T02:57:30;13.93;;;5.70;;
74624;SDS011;63131;52.298;8.056;2023-03-08T02:59:55;13.73;;;5.30;;
74624;SDS011;63131;52.298;8.056;2023-03-08T03:02:20;12.85;;;6.00;;
74624;SDS011;63131;52.298;8.056;2023-03-08T03:04:46;12.30;;;6.20;;
74624;SDS011;63131;52.298;8.056;2023-03-08T03:07:11;14.25;;;5.55;;
74624;SDS011;63131;52.298;8.056;2023-03-08T03:09:36;11.27;;;5.43;;
74624;SDS011;63131;52.298;8.056;2023-03-08T03:12:02;17.88;;;6.57;;
74624;SDS011;63131;52.298;8.056;2023-03-08T03:14:27;13.23;;;5.85;;
74624;SDS011;63131;52.298;8.056;2023-03-08T03:16:53;13.68;;;5.95;;
74624;SDS011;63131;52.298;8.056;2023-03-08T03:19:18;12.32;;;6.07;;
74624;SDS011;63131;52.298;8.056;2023-03-08T03:21:44;15.25;;;6.07;;
74624;SDS011;63131;52.298;8.056;2023-03-08T03:24:09;12.73;;;5.50;;
74624;SDS011;63131;52.298;8.056;2023-03-08T03:26:35;14.10;;;5.45;;
74624;SDS011;63131;52.298;8.056;2023-03-08T03:29:00;12.52;;;5.85;;
74624;SDS011;63131;52.298;8.056;2023-03-08T03:31:26;13.98;;;6.68;;
74624;SDS011;63131;52.298;8.056;2023-03-08T03:33:52;12.90;;;6.07;;
74624;SDS011;63131;52.298;8.056;2023-03-08T03:36:18;12.93;;;5.72;;
74624;SDS011;63131;52.298;8.056;2023-03-08T03:38:45;13.48;;;6.97;;
74624;SDS011;63131;52.298;8.056;2023-03-08T03:41:13;17.35;;;7.15;;
74624;SDS011;63131;52.298;8.056;2023-03-08T03:46:13;12.02;;;6.25;;
74624;SDS011;63131;52.298;8.056;2023-03-08T03:48:39;15.27;;;7.18;;
74624;SDS011;63131;52.298;8.056;2023-03-08T03:51:06;12.77;;;5.97;;
74624;SDS011;63131;52.298;8.056;2023-03-08T03:53:34;13.95;;;6.53;;
74624;SDS011;63131;52.298;8.056;2023-03-08T03:58:35;16.63;;;7.60;;
74624;SDS011;63131;52.298;8.056;2023-03-08T04:01:00;19.55;;;8.18;;
74624;SDS011;63131;52.298;8.056;2023-03-08T04:03:25;14.45;;;5.65;;
74624;SDS011;63131;52.298;8.056;2023-03-08T04:05:51;16.52;;;6.70;;
74624;SDS011;63131;52.298;8.056;2023-03-08T04:08:16;12.73;;;6.22;;
74624;SDS011;63131;52.298;8.056;2023-03-08T04:10:42;13.30;;;5.85;;
74624;SDS011;63131;52.298;8.056;2023-03-08T04:13:09;15.65;;;6.85;;
74624;SDS011;63131;52.298;8.056;2023-03-08T04:15:35;17.45;;;6.03;;
74624;SDS011;63131;52.298;8.056;2023-03-08T04:18:00;14.38;;;6.32;;
74624;SDS011;63131;52.298;8.056;2023-03-08T04:20:26;13.63;;;5.85;;
74624;SDS011;63131;52.298;8.056;2023-03-08T04:22:51;15.27;;;7.53;;
74624;SDS011;63131;52.298;8.056;2023-03-08T04:25:16;15.40;;;6.65;;
74624;SDS011;63131;52.298;8.056;2023-03-08T04:27:42;13.80;;;5.97;;
74624;SDS011;63131;52.298;8.056;2023-03-08T04:30:08;14.57;;;5.63;;
74624;SDS011;63131;52.298;8.056;2023-03-08T04:32:34;14.75;;;6.60;;
74624;SDS011;63131;52.298;8.056;2023-03-08T04:34:59;15.45;;;6.05;;
74624;SDS011;63131;52.298;8.056;2023-03-08T04:37:25;17.17;;;6.70;;
74624;SDS011;63131;52.298;8.056;2023-03-08T04:39:50;14.50;;;5.47;;
74624;SDS011;63131;52.298;8.056;2023-03-08T04:42:15;17.58;;;6.25;;
74624;SDS011;63131;52.298;8.056;2023-03-08T04:44:41;15.48;;;5.57;;
74624;SDS011;63131;52.298;8.056;2023-03-08T04:47:06;13.43;;;6.00;;
74624;SDS011;63131;52.298;8.056;2023-03-08T04:49:31;14.18;;;5.90;;
74624;SDS011;63131;52.298;8.056;2023-03-08T04:51:57;15.50;;;6.38;;
74624;SDS011;63131;52.298;8.056;2023-03-08T04:54:22;14.10;;;5.25;;
74624;SDS011;63131;52.298;8.056;2023-03-08T04:56:48;14.90;;;6.60;;
74624;SDS011;63131;52.298;8.056;2023-03-08T04:59:13;14.65;;;6.50;;
74624;SDS011;63131;52.298;8.056;2023-03-08T05:01:38;15.43;;;6.57;;
74624;SDS011;63131;52.298;8.056;2023-03-08T05:04:04;14.23;;;6.88;;
74624;SDS011;63131;52.298;8.056;2023-03-08T05:06:29;13.93;;;6.60;;
74624;SDS011;63131;52.298;8.056;2023-03-08T05:08:54;14.23;;;6.22;;
74624;SDS011;63131;52.298;8.056;2023-03-08T05:11:21;17.50;;;6.97;;
74624;SDS011;63131;52.298;8.056;2023-03-08T05:13:48;14.52;;;6.05;;
74624;SDS011;63131;52.298;8.056;2023-03-08T05:16:14;12.65;;;6.18;;
74624;SDS011;63131;52.298;8.056;2023-03-08T05:18:39;14.98;;;6.60;;
74624;SDS011;63131;52.298;8.056;2023-03-08T05:21:06;14.93;;;6.45;;
74624;SDS011;63131;52.298;8.056;2023-03-08T05:23:33;12.65;;;5.60;;
74624;SDS011;63131;52.298;8.056;2023-03-08T05:25:59;14.68;;;6.20;;
74624;SDS011;63131;52.298;8.056;2023-03-08T05:28:27;14.25;;;6.65;;
74624;SDS011;63131;52.298;8.056;2023-03-08T05:31:07;16.67;;;6.20;;
74624;SDS011;63131;52.298;8.056;2023-03-08T05:33:35;14.18;;;6.05;;
74624;SDS011;63131;52.298;8.056;2023-03-08T05:36:01;17.27;;;5.43;;
74624;SDS011;63131;52.298;8.056;2023-03-08T05:38:26;15.55;;;5.82;;
74624;SDS011;63131;52.298;8.056;2023-03-08T05:40:52;17.42;;;7.07;;
74624;SDS011;63131;52.298;8.056;2023-03-08T05:43:17;15.23;;;6.30;;
74624;SDS011;63131;52.298;8.056;2023-03-08T05:45:52;16.83;;;7.18;;
74624;SDS011;63131;52.298;8.056;2023-03-08T05:48:18;15.77;;;5.68;;
74624;SDS011;63131;52.298;8.056;2023-03-08T05:50:44;13.35;;;5.82;;
74624;SDS011;63131;52.298;8.056;2023-03-08T05:53:10;15.43;;;6.38;;
74624;SDS011;63131;52.298;8.056;2023-03-08T05:55:36;12.60;;;5.57;;
74624;SDS011;63131;52.298;8.056;2023-03-08T05:58:01;17.33;;;6.10;;
74624;SDS011;63131;52.298;8.056;2023-03-08T06:00:26;17.05;;;7.00;;
74624;SDS011;63131;52.298;8.056;2023-03-08T06:02:52;16.67;;;6.75;;
74624;SDS011;63131;52.298;8.056;2023-03-08T06:05:17;16.90;;;7.18;;
74624;SDS011;63131;52.298;8.056;2023-03-08T06:07:43;14.68;;;5.57;;
74624;SDS011;63131;52.298;8.056;2023-03-08T06:10:08;13.35;;;5.82;;
74624;SDS011;63131;52.298;8.056;2023-03-08T06:12:34;15.63;;;6.80;;
74624;SDS011;63131;52.298;8.056;2023-03-08T06:14:59;13.77;;;6.35;;
74624;SDS011;63131;52.298;8.056;2023-03-08T06:17:24;16.20;;;7.10;;
74624;SDS011;63131;52.298;8.056;2023-03-08T06:19:52;16.40;;;7.18;;
74624;SDS011;63131;52.298;8.056;2023-03-08T06:22:18;16.02;;;7.43;;
74624;SDS011;63131;52.298;8.056;2023-03-08T06:24:43;18.92;;;8.02;;
74624;SDS011;63131;52.298;8.056;2023-03-08T06:27:08;15.88;;;7.13;;
74624;SDS011;63131;52.298;8.056;2023-03-08T06:29:34;17.75;;;6.38;;
74624;SDS011;63131;52.298;8.056;2023-03-08T06:31:59;17.65;;;8.10;;
74624;SDS011;63131;52.298;8.056;2023-03-08T06:34:25;17.00;;;7.53;;
74624;SDS011;63131;52.298;8.056;2023-03-08T06:36:50;16.95;;;6.57;;
74624;SDS011;63131;52.298;8.056;2023-03-08T06:39:16;18.63;;;6.82;;
74624;SDS011;63131;52.298;8.056;2023-03-08T06:41:41;16.65;;;7.97;;
74624;SDS011;63131;52.298;8.056;2023-03-08T06:44:07;16.98;;;7.03;;
74624;SDS011;63131;52.298;8.056;2023-03-08T06:46:32;18.27;;;7.20;;
74624;SDS011;63131;52.298;8.056;2023-03-08T06:48:58;16.63;;;7.20;;
74624;SDS011;63131;52.298;8.056;2023-03-08T06:51:24;18.90;;;7.03;;
74624;SDS011;63131;52.298;8.056;2023-03-08T06:53:49;16.08;;;7.10;;
74624;SDS011;63131;52.298;8.056;2023-03-08T06:56:15;17.98;;;6.50;;
74624;SDS011;63131;52.298;8.056;2023-03-08T06:58:42;19.90;;;8.02;;
74624;SDS011;63131;52.298;8.056;2023-03-08T07:01:08;20.52;;;8.15;;
74624;SDS011;63131;52.298;8.056;2023-03-08T07:03:33;19.58;;;8.27;;
74624;SDS011;63131;52.298;8.056;2023-03-08T07:06:00;19.80;;;8.25;;
74624;SDS011;63131;52.298;8.056;2023-03-08T07:08:26;17.88;;;7.82;;
74624;SDS011;63131;52.298;8.056;2023-03-08T07:10:51;16.67;;;7.28;;
74624;SDS011;63131;52.298;8.056;2023-03-08T07:13:17;17.20;;;7.65;;
74624;SDS011;63131;52.298;8.056;2023-03-08T07:15:42;18.55;;;8.30;;
74624;SDS011;63131;52.298;8.056;2023-03-08T07:18:07;21.40;;;8.30;;
74624;SDS011;63131;52.298;8.056;2023-03-08T07:20:33;16.63;;;6.45;;
74624;SDS011;63131;52.298;8.056;2023-03-08T07:22:58;16.48;;;7.70;;
74624;SDS011;63131;52.298;8.056;2023-03-08T07:25:25;17.73;;;8.02;;
74624;SDS011;63131;52.298;8.056;2023-03-08T07:27:51;20.30;;;6.97;;
74624;SDS011;63131;52.298;8.056;2023-03-08T07:30:16;15.40;;;6.70;;
74624;SDS011;63131;52.298;8.056;2023-03-08T07:32:42;17.23;;;7.43;;
74624;SDS011;63131;52.298;8.056;2023-03-08T07:35:08;21.25;;;8.25;;
74624;SDS011;63131;52.298;8.056;2023-03-08T07:37:36;18.73;;;7.18;;
74624;SDS011;63131;52.298;8.056;2023-03-08T07:40:01;15.05;;;6.60;;
74624;SDS011;63131;52.298;8.056;2023-03-08T07:42:28;18.35;;;7.60;;
74624;SDS011;63131;52.298;8.056;2023-03-08T07:44:54;18.42;;;7.53;;
74624;SDS011;63131;52.298;8.056;2023-03-08T07:47:19;16.92;;;7.75;;
74624;SDS011;63131;52.298;8.056;2023-03-08T07:49:55;15.25;;;6.40;;
74624;SDS011;63131;52.298;8.056;2023-03-08T07:52:25;16.33;;;6.75;;
74624;SDS011;63131;52.298;8.056;2023-03-08T07:54:51;16.02;;;6.82;;
74624;SDS011;63131;52.298;8.056;2023-03-08T07:57:17;14.75;;;6.95;;
74624;SDS011;63131;52.298;8.056;2023-03-08T07:59:42;18.45;;;7.57;;
74624;SDS011;63131;52.298;8.056;2023-03-08T08:02:10;15.73;;;6.88;;
74624;SDS011;63131;52.298;8.056;2023-03-08T08:04:36;16.13;;;6.30;;
74624;SDS011;63131;52.298;8.056;2023-03-08T08:07:02;14.68;;;5.90;;
74624;SDS011;63131;52.298;8.056;2023-03-08T08:09:28;18.90;;;8.50;;
74624;SDS011;63131;52.298;8.056;2023-03-08T08:11:53;17.42;;;7.22;;
74624;SDS011;63131;52.298;8.056;2023-03-08T08:14:20;18.55;;;7.28;;
74624;SDS011;63131;52.298;8.056;2023-03-08T08:16:45;16.55;;;7.03;;
74624;SDS011;63131;52.298;8.056;2023-03-08T08:19:10;19.33;;;8.07;;
74624;SDS011;63131;52.298;8.056;2023-03-08T08:21:36;15.90;;;7.65;;
74624;SDS011;63131;52.298;8.056;2023-03-08T08:24:01;17.50;;;7.18;;
74624;SDS011;63131;52.298;8.056;2023-03-08T08:26:27;18.60;;;7.72;;
74624;SDS011;63131;52.298;8.056;2023-03-08T08:28:53;19.58;;;8.27;;
74624;SDS011;63131;52.298;8.056;2023-03-08T08:31:20;18.20;;;7.97;;
74624;SDS011;63131;52.298;8.056;2023-03-08T08:33:47;18.25;;;8.50;;
74624;SDS011;63131;52.298;8.056;2023-03-08T08:36:14;18.50;;;7.50;;
74624;SDS011;63131;52.298;8.056;2023-03-08T08:38:41;20.40;;;8.07;;
74624;SDS011;63131;52.298;8.056;2023-03-08T08:41:10;20.58;;;8.55;;
74624;SDS011;63131;52.298;8.056;2023-03-08T08:43:36;22.88;;;10.23;;
74624;SDS011;63131;52.298;8.056;2023-03-08T08:46:02;22.63;;;10.50;;
74624;SDS011;63131;52.298;8.056;2023-03-08T08:48:28;23.42;;;9.15;;
74624;SDS011;63131;52.298;8.056;2023-03-08T08:50:53;22.45;;;9.40;;
74624;SDS011;63131;52.298;8.056;2023-03-08T08:53:19;22.58;;;9.82;;
74624;SDS011;63131;52.298;8.056;2023-03-08T08:55:46;22.73;;;9.52;;
74624;SDS011;63131;52.298;8.056;2023-03-08T08:58:11;26.40;;;11.23;;
74624;SDS011;63131;52.298;8.056;2023-03-08T09:00:38;24.58;;;10.50;;
74624;SDS011;63131;52.298;8.056;2023-03-08T09:03:03;21.40;;;10.48;;
74624;SDS011;63131;52.298;8.056;2023-03-08T09:05:29;26.67;;;11.68;;
74624;SDS011;63131;52.298;8.056;2023-03-08T09:10:22;25.95;;;11.32;;
74624;SDS011;63131;52.298;8.056;2023-03-08T09:12:48;26.38;;;11.63;;
74624;SDS011;63131;52.298;8.056;2023-03-08T09:15:14;23.13;;;10.25;;
74624;SDS011;63131;52.298;8.056;2023-03-08T09:17:39;26.15;;;11.13;;
74624;SDS011;63131;52.298;8.056;2023-03-08T09:20:05;27.77;;;11.35;;
74624;SDS011;63131;52.298;8.056;2023-03-08T09:22:33;27.38;;;11.63;;
74624;SDS011;63131;52.298;8.056;2023-03-08T09:24:59;27.80;;;10.52;;
74624;SDS011;63131;52.298;8.056;2023-03-08T09:27:24;25.90;;;10.18;;
74624;SDS011;63131;52.298;8.056;2023-03-08T09:29:50;29.15;;;10.52;;
74624;SDS011;63131;52.298;8.056;2023-03-08T09:32:15;27.60;;;10.88;;
74624;SDS011;63131;52.298;8.056;2023-03-08T09:34:41;28.45;;;11.82;;
74624;SDS011;63131;52.298;8.056;2023-03-08T09:37:06;27.52;;;11.57;;
74624;SDS011;63131;52.298;8.056;2023-03-08T09:39:32;26.83;;;11.90;;
74624;SDS011;63131;52.298;8.056;2023-03-08T09:42:02;28.15;;;11.60;;
74624;SDS011;63131;52.298;8.056;2023-03-08T09:47:21;25.40;;;11.07;;
74624;SDS011;63131;52.298;8.056;2023-03-08T09:49:53;26.92;;;11.32;;
74624;SDS011;63131;52.298;8.056;2023-03-08T09:54:45;29.70;;;12.03;;
74624;SDS011;63131;52.298;8.056;2023-03-08T09:57:33;27.48;;;12.27;;
74624;SDS011;63131;52.298;8.056;2023-03-08T09:59:59;24.08;;;10.85;;
74624;SDS011;63131;52.298;8.056;2023-03-08T10:11:57;32.47;;;14.00;;
74624;SDS011;63131;52.298;8.056;2023-03-08T10:14:26;31.58;;;14.43;;
74624;SDS011;63131;52.298;8.056;2023-03-08T10:16:57;32.50;;;12.55;;
74624;SDS011;63131;52.298;8.056;2023-03-08T10:19:27;32.08;;;13.30;;
74624;SDS011;63131;52.298;8.056;2023-03-08T10:21:57;33.10;;;13.73;;
74624;SDS011;63131;52.298;8.056;2023-03-08T10:24:33;31.02;;;12.82;;
74624;SDS011;63131;52.298;8.056;2023-03-08T10:27:18;34.50;;;14.18;;
74624;SDS011;63131;52.298;8.056;2023-03-08T10:29:47;33.22;;;15.00;;
74624;SDS011;63131;52.298;8.056;2023-03-08T10:32:13;35.40;;;14.68;;
74624;SDS011;63131;52.298;8.056;2023-03-08T10:34:39;31.08;;;15.18;;
74624;SDS011;63131;52.298;8.056;2023-03-08T10:37:04;34.20;;;14.13;;
74624;SDS011;63131;52.298;8.056;2023-03-08T10:39:45;30.33;;;12.30;;
74624;SDS011;63131;52.298;8.056;2023-03-08T10:42:17;33.47;;;13.35;;
74624;SDS011;63131;52.298;8.056;2023-03-08T10:44:56;32.83;;;14.68;;
74624;SDS011;63131;52.298;8.056;2023-03-08T10:47:30;33.10;;;12.50;;
74624;SDS011;63131;52.298;8.056;2023-03-08T10:50:14;29.83;;;14.82;;
74624;SDS011;63131;52.298;8.056;2023-03-08T10:52:44;28.52;;;13.23;;
74624;SDS011;63131;52.298;8.056;2023-03-08T10:55:14;35.55;;;14.45;;
74624;SDS011;63131;52.298;8.056;2023-03-08T10:57:57;33.05;;;15.48;;
74624;SDS011;63131;52.298;8.056;2023-03-08T11:00:34;28.35;;;13.18;;
74624;SDS011;63131;52.298;8.056;2023-03-08T11:03:02;31.77;;;13.57;;
74624;SDS011;63131;52.298;8.056;2023-03-08T11:05:37;34.25;;;14.40;;
74624;SDS011;63131;52.298;8.056;2023-03-08T11:08:02;27.45;;;13.02;;
74624;SDS011;63131;52.298;8.056;2023-03-08T11:10:29;34.55;;;15.57;;
74624;SDS011;63131;52.298;8.056;2023-03-08T11:13:05;29.58;;;12.52;;
74624;SDS011;63131;52.298;8.056;2023-03-08T11:15:58;29.15;;;11.95;;
74624;SDS011;63131;52.298;8.056;2023-03-08T11:20:55;27.20;;;14.47;;
74624;SDS011;63131;52.298;8.056;2023-03-08T11:23:31;27.35;;;12.10;;
74624;SDS011;63131;52.298;8.056;2023-03-08T11:26:03;24.67;;;12.02;;
74624;SDS011;63131;52.298;8.056;2023-03-08T11:28:41;22.23;;;11.40;;
74624;SDS011;63131;52.298;8.056;2023-03-08T11:34:06;20.48;;;8.95;;
74624;SDS011;63131;52.298;8.056;2023-03-08T11:36:46;22.10;;;9.27;;
74624;SDS011;63131;52.298;8.056;2023-03-08T11:41:52;19.40;;;8.38;;
74624;SDS011;63131;52.298;8.056;2023-03-08T11:47:20;15.45;;;7.00;;
74624;SDS011;63131;52.298;8.056;2023-03-08T11:52:50;12.07;;;5.05;;
74624;SDS011;63131;52.298;8.056;2023-03-08T11:55:41;11.90;;;4.68;;
74624;SDS011;63131;52.298;8.056;2023-03-08T11:58:30;11.73;;;4.13;;
74624;SDS011;63131;52.298;8.056;2023-03-08T12:00:59;12.63;;;5.07;;
74624;SDS011;63131;52.298;8.056;2023-03-08T12:03:29;12.02;;;5.35;;
74624;SDS011;63131;52.298;8.056;2023-03-08T12:06:04;18.50;;;4.32;;
74624;SDS011;63131;52.298;8.056;2023-03-08T12:08:39;12.43;;;4.45;;
74624;SDS011;63131;52.298;8.056;2023-03-08T12:11:26;11.85;;;5.03;;
74624;SDS011;63131;52.298;8.056;2023-03-08T12:13:56;16.27;;;6.07;;
74624;SDS011;63131;52.298;8.056;2023-03-08T12:16:29;14.43;;;5.05;;
74624;SDS011;63131;52.298;8.056;2023-03-08T12:22:00;8.60;;;4.18;;
74624;SDS011;63131;52.298;8.056;2023-03-08T12:24:43;13.38;;;4.68;;
74624;SDS011;63131;52.298;8.056;2023-03-08T12:30:00;10.02;;;3.67;;
74624;SDS011;63131;52.298;8.056;2023-03-08T12:32:39;10.45;;;3.67;;
74624;SDS011;63131;52.298;8.056;2023-03-08T12:35:27;9.43;;;3.75;;
74624;SDS011;63131;52.298;8.056;2023-03-08T12:37:58;10.73;;;4.20;;
74624;SDS011;63131;52.298;8.056;2023-03-08T12:40:27;9.48;;;3.63;;
74624;SDS011;63131;52.298;8.056;2023-03-08T12:43:05;9.48;;;3.72;;
74624;SDS011;63131;52.298;8.056;2023-03-08T12:45:38;13.82;;;5.00;;
74624;SDS011;63131;52.298;8.056;2023-03-08T12:50:44;11.70;;;5.25;;
74624;SDS011;63131;52.298;8.056;2023-03-08T12:58:57;11.85;;;4.50;;
74624;SDS011;63131;52.298;8.056;2023-03-08T13:01:35;11.48;;;4.25;;
74624;SDS011;63131;52.298;8.056;2023-03-08T13:04:03;11.30;;;4.60;;
74624;SDS011;63131;52.298;8.056;2023-03-08T13:06:35;13.00;;;4.35;;
74624;SDS011;63131;52.298;8.056;2023-03-08T13:09:20;9.68;;;3.60;;
74624;SDS011;63131;52.298;8.056;2023-03-08T13:11:48;10.50;;;4.47;;
74624;SDS011;63131;52.298;8.056;2023-03-08T13:16:52;14.10;;;3.90;;
74624;SDS011;63131;52.298;8.056;2023-03-08T13:19:27;9.73;;;3.75;;
74624;SDS011;63131;52.298;8.056;2023-03-08T13:22:05;10.20;;;4.07;;
74624;SDS011;63131;52.298;8.056;2023-03-08T13:31:18;9.82;;;3.33;;
74624;SDS011;63131;52.298;8.056;2023-03-08T13:33:46;9.77;;;3.63;;
74624;SDS011;63131;52.298;8.056;2023-03-08T13:36:34;9.23;;;3.42;;
74624;SDS011;63131;52.298;8.056;2023-03-08T13:39:01;9.57;;;3.60;;
74624;SDS011;63131;52.298;8.056;2023-03-08T13:41:38;10.60;;;3.78;;
74624;SDS011;63131;52.298;8.056;2023-03-08T13:44:28;9.43;;;3.70;;
74624;SDS011;63131;52.298;8.056;2023-03-08T13:46:59;11.25;;;4.50;;
74624;SDS011;63131;52.298;8.056;2023-03-08T13:49:31;8.75;;;3.33;;
74624;SDS011;63131;52.298;8.056;2023-03-08T13:52:01;9.38;;;3.60;;
74624;SDS011;63131;52.298;8.056;2023-03-08T13:54:40;9.00;;;3.40;;
74624;SDS011;63131;52.298;8.056;2023-03-08T13:57:25;8.88;;;3.28;;
74624;SDS011;63131;52.298;8.056;2023-03-08T13:59:57;9.73;;;4.03;;
74624;SDS011;63131;52.298;8.056;2023-03-08T14:02:44;9.40;;;3.25;;
74624;SDS011;63131;52.298;8.056;2023-03-08T14:08:52;8.00;;;3.67;;
74624;SDS011;63131;52.298;8.056;2023-03-08T14:11:51;8.93;;;3.70;;
74624;SDS011;63131;52.298;8.056;2023-03-08T14:14:45;9.15;;;3.08;;
74624;SDS011;63131;52.298;8.056;2023-03-08T14:17:39;8.05;;;3.38;;
74624;SDS011;63131;52.298;8.056;2023-03-08T14:20:15;8.68;;;3.30;;
74624;SDS011;63131;52.298;8.056;2023-03-08T14:22:45;7.95;;;3.20;;
74624;SDS011;63131;52.298;8.056;2023-03-08T14:25:28;6.75;;;2.40;;
74624;SDS011;63131;52.298;8.056;2023-03-08T14:27:56;5.60;;;2.30;;
74624;SDS011;63131;52.298;8.056;2023-03-08T14:30:26;7.40;;;2.55;;
74624;SDS011;63131;52.298;8.056;2023-03-08T14:33:01;7.32;;;2.35;;
74624;SDS011;63131;52.298;8.056;2023-03-08T14:35:39;8.98;;;2.35;;
74624;SDS011;63131;52.298;8.056;2023-03-08T14:38:19;6.78;;;2.67;;
74624;SDS011;63131;52.298;8.056;2023-03-08T14:40:50;8.20;;;2.90;;
74624;SDS011;63131;52.298;8.056;2023-03-08T14:43:20;6.75;;;2.17;;
74624;SDS011;63131;52.298;8.056;2023-03-08T14:45:58;7.32;;;2.50;;
74624;SDS011;63131;52.298;8.056;2023-03-08T14:49:20;6.07;;;1.95;;
74624;SDS011;63131;52.298;8.056;2023-03-08T14:52:21;6.63;;;2.53;;
74624;SDS011;63131;52.298;8.056;2023-03-08T14:57:46;7.55;;;2.65;;
74624;SDS011;63131;52.298;8.056;2023-03-08T15:00:13;7.45;;;2.30;;
74624;SDS011;63131;52.298;8.056;2023-03-08T15:02:42;7.32;;;2.50;;
74624;SDS011;63131;52.298;8.056;2023-03-08T15:05:14;6.75;;;2.83;;
74624;SDS011;63131;52.298;8.056;2023-03-08T15:07:41;8.02;;;2.50;;
74624;SDS011;63131;52.298;8.056;2023-03-08T15:10:07;8.82;;;2.70;;
74624;SDS011;63131;52.298;8.056;2023-03-08T15:12:39;8.55;;;3.08;;
74624;SDS011;63131;52.298;8.056;2023-03-08T15:15:08;8.23;;;3.42;;
74624;SDS011;63131;52.298;8.056;2023-03-08T15:17:39;10.05;;;3.33;;
74624;SDS011;63131;52.298;8.056;2023-03-08T15:20:05;6.95;;;2.63;;
74624;SDS011;63131;52.298;8.056;2023-03-08T15:22:36;8.52;;;2.60;;
74624;SDS011;63131;52.298;8.056;2023-03-08T15:25:55;7.68;;;3.08;;
74624;SDS011;63131;52.298;8.056;2023-03-08T15:28:02;9.52;;;3.17;;
74624;SDS011;63131;52.298;8.056;2023-03-08T15:30:29;8.32;;;2.83;;
74624;SDS011;63131;52.298;8.056;2023-03-08T15:32:54;6.38;;;2.85;;
74624;SDS011;63131;52.298;8.056;2023-03-08T15:35:21;8.07;;;3.00;;
74624;SDS011;63131;52.298;8.056;2023-03-08T15:40:16;7.30;;;3.05;;
74624;SDS011;63131;52.298;8.056;2023-03-08T15:43:02;8.52;;;3.03;;
74624;SDS011;63131;52.298;8.056;2023-03-08T15:45:27;9.18;;;3.28;;
74624;SDS011;63131;52.298;8.056;2023-03-08T15:47:57;7.40;;;2.83;;
74624;SDS011;63131;52.298;8.056;2023-03-08T15:50:26;13.93;;;10.10;;
74624;SDS011;63131;52.298;8.056;2023-03-08T15:57:52;9.45;;;4.10;;
74624;SDS011;63131;52.298;8.056;2023-03-08T16:00:20;8.63;;;4.47;;
74624;SDS011;63131;52.298;8.056;2023-03-08T16:02:47;8.00;;;2.88;;
74624;SDS011;63131;52.298;8.056;2023-03-08T16:05:14;10.02;;;2.97;;
74624;SDS011;63131;52.298;8.056;2023-03-08T16:07:54;7.10;;;2.90;;